Ubc Olimbus — D5JV9 — position and weather

sailwx.info

Track history (hours):
 
Tides and Currents Weather Stations Pressure Air Temp Water Temp Dewpoint Dewpoint Depression Visibility Wind Speed Wind Dir Waves Ship Positions

Ubc Olimbus

Last reported at 2017-Nov-05 17:22 UTC. Time now 2017-Nov-18 12:30 UTC.
Position N 01°17' E 103°58'.
Warning: this ship's position is 12 days out of date.

Length 260 m; draft 14 m.

Type: Ship. MMSI: 636017224.

Date/timePositionNaut miles runAvg speedWind from/ knotsBaromVisibWave heightAir tempDewpointWater temp
2017-Nov-05 17:22N 01°17' E 103°58'0 1.4
2017-Nov-05 17:00N 01°16' E 103°58'1 2.4
2017-Nov-05 16:29N 01°15' E 103°57'2 3.8
2017-Nov-05 15:58N 01°13' E 103°56'4 8.5
2017-Nov-05 15:30N 01°12' E 103°53'4 8.3
2017-Nov-05 15:00N 01°10' E 103°49'4 7.9
2017-Nov-05 14:30N 01°08' E 103°46'4 8.4
2017-Nov-05 14:01N 01°05' E 103°42'6 8.8
2017-Nov-05 13:23N 01°04' E 103°37'9 8.7
2017-Nov-05 12:21N 01°08' E 103°29'4 9.1
2017-Nov-05 11:57N 01°10' E 103°26'4 9.3
2017-Nov-05 11:29N 01°13' E 103°22'6 9.6
2017-Nov-05 10:53N 01°17' E 103°18'  
Track history (hours):
 
Tides and Currents Weather Stations Pressure Air Temp Water Temp Dewpoint Dewpoint Depression Visibility Wind Speed Wind Dir Waves Ship Positions

Ubc Olimbus

Last reported at 2017-Nov-05 17:22 UTC. Time now 2017-Nov-18 12:30 UTC.
Position N 01°17' E 103°58'.
Warning: this ship's position is 12 days out of date.

Length 260 m; draft 14 m.

Type: Ship. MMSI: 636017224.

Date/timePositionNaut miles runAvg speedWind from/ knotsBaromVisibWave heightAir tempDewpointWater temp
2017-Nov-05 17:22N 01°17' E 103°58'0 1.4
2017-Nov-05 17:00N 01°16' E 103°58'1 2.4
2017-Nov-05 16:29N 01°15' E 103°57'2 3.8
2017-Nov-05 15:58N 01°13' E 103°56'4 8.5
2017-Nov-05 15:30N 01°12' E 103°53'4 8.3
2017-Nov-05 15:00N 01°10' E 103°49'4 7.9
2017-Nov-05 14:30N 01°08' E 103°46'4 8.4
2017-Nov-05 14:01N 01°05' E 103°42'6 8.8
2017-Nov-05 13:23N 01°04' E 103°37'9 8.7
2017-Nov-05 12:21N 01°08' E 103°29'4 9.1
2017-Nov-05 11:57N 01°10' E 103°26'4 9.3
2017-Nov-05 11:29N 01°13' E 103°22'6 9.6
2017-Nov-05 10:53N 01°17' E 103°18'  

Dump ship's entire track history